Time;durP1;ratioP1;P1;durP2;ratioP2;P2;SDS_P1;SDS_P2;PMS_P1;PMS_P2;Temp;Humidity;BMP_temperature;BMP_pressure;BME280_temperature;BME280_humidity;BME280_pressure;Samples;Min_cycle;Max_cycle;Signal;HPM_P1;HPM_P2
2022/01/20 00:03:23;;;;;;;;;;;3.70;99.90;;;;;;5067327;28;19966;-44
2022/01/20 00:27:12;;;;;;;;;;;3.60;99.90;;;;;;5056463;28;19966;-43
2022/01/20 00:30:46;;;;;;;;;;;3.70;99.90;;;;;;5065128;28;19916;-45
2022/01/20 00:32:49;;;;;;;;;;;3.70;99.90;;;;;;5057510;28;19916;-43
2022/01/20 00:37:41;;;;;;;;;;;3.70;99.90;;;;;;5077579;28;20324;-42
2022/01/20 00:40:07;;;;;;;;;;;3.70;99.90;;;;;;5075928;28;19954;-45
2022/01/20 00:42:32;;;;;;;;;;;3.70;99.90;;;;;;5062328;28;19957;-45
2022/01/20 00:44:58;;;;;;;;;;;3.60;99.90;;;;;;5064563;28;20007;-43
2022/01/20 00:47:23;;;;;;;;;;;3.60;99.90;;;;;;5075122;28;19919;-46
2022/01/20 00:49:49;;;;;;;;;;;3.60;99.90;;;;;;5075499;28;19909;-41
2022/01/20 00:52:15;;;;;;;;;;;3.60;99.90;;;;;;5073622;28;19927;-41
2022/01/20 00:54:40;;;;;;;;;;;3.60;99.90;;;;;;5075616;28;20008;-40
2022/01/20 00:57:06;;;;;;;;;;;3.60;99.90;;;;;;5065280;28;20363;-41
2022/01/20 00:59:32;;;;;;;;;;;3.70;99.90;;;;;;5055293;28;20004;-41
2022/01/20 01:05:00;;;;;;;;;;;3.70;99.90;;;;;;5067725;28;20286;-48
2022/01/20 01:09:57;;;;;;;;;;;3.80;99.90;;;;;;5057458;28;19920;-40
2022/01/20 01:12:41;;;;;;;;;;;3.70;99.90;;;;;;5040418;28;19917;-45
2022/01/20 01:15:12;;;;;;;;;;;3.70;99.90;;;;;;5038430;28;19908;-43
2022/01/20 01:20:24;;;;;;;;;;;3.70;99.90;;;;;;5054430;28;19916;-43
2022/01/20 01:22:50;;;;;;;;;;;3.70;99.90;;;;;;5055089;28;20263;-44
2022/01/20 01:25:16;;;;;;;;;;;3.60;99.90;;;;;;5055284;28;19909;-45
2022/01/20 01:27:43;;;;;;;;;;;3.60;99.90;;;;;;5048582;28;19910;-40
2022/01/20 01:30:40;;;;;;;;;;;3.60;99.90;;;;;;5034818;28;20352;-41
2022/01/20 01:33:07;;;;;;;;;;;3.60;99.90;;;;;;5035129;28;19917;-43
2022/01/20 01:35:34;;;;;;;;;;;3.60;99.90;;;;;;5034985;28;20314;-41
2022/01/20 01:40:32;;;;;;;;;;;3.70;99.90;;;;;;5034941;28;19944;-42
2022/01/20 01:43:00;;;;;;;;;;;3.70;99.90;;;;;;5034394;28;19993;-45
2022/01/20 01:45:35;;;;;;;;;;;3.60;99.90;;;;;;5045646;28;19913;-48
2022/01/20 01:48:01;;;;;;;;;;;3.60;99.90;;;;;;5034571;28;19932;-41
2022/01/20 01:50:27;;;;;;;;;;;3.60;99.90;;;;;;5041561;28;20271;-42
2022/01/20 01:52:54;;;;;;;;;;;3.70;99.90;;;;;;5053652;28;19917;-42
2022/01/20 01:55:20;;;;;;;;;;;3.60;99.90;;;;;;5054246;28;19971;-41
2022/01/20 01:57:46;;;;;;;;;;;3.70;99.90;;;;;;5054739;28;19909;-43
2022/01/20 02:00:12;;;;;;;;;;;3.70;99.90;;;;;;5044871;28;20419;-43
2022/01/20 02:02:37;;;;;;;;;;;3.70;99.90;;;;;;5036576;28;19956;-46
2022/01/20 02:05:05;;;;;;;;;;;3.70;99.90;;;;;;5033936;28;19910;-44
2022/01/20 02:18:49;;;;;;;;;;;3.60;99.90;;;;;;5036564;28;19966;-44
2022/01/20 02:21:14;;;;;;;;;;;3.70;99.90;;;;;;5033552;28;20013;-45
2022/01/20 02:23:40;;;;;;;;;;;3.70;99.90;;;;;;5033725;28;20363;-43
2022/01/20 02:26:05;;;;;;;;;;;3.70;99.90;;;;;;5033816;28;20303;-45
2022/01/20 02:28:31;;;;;;;;;;;3.60;99.90;;;;;;5033587;28;20352;-42
2022/01/20 02:30:56;;;;;;;;;;;3.70;99.90;;;;;;5033494;28;19909;-43
2022/01/20 02:33:24;;;;;;;;;;;3.60;99.90;;;;;;5033276;28;20025;-43
2022/01/20 02:35:51;;;;;;;;;;;3.60;99.90;;;;;;5033429;28;20438;-44
2022/01/20 02:45:54;;;;;;;;;;;3.50;99.90;;;;;;5033560;28;19970;-45
2022/01/20 02:48:19;;;;;;;;;;;3.40;99.90;;;;;;5033304;28;20298;-44
2022/01/20 02:50:45;;;;;;;;;;;3.40;99.90;;;;;;5033431;28;19912;-45
2022/01/20 02:53:10;;;;;;;;;;;3.40;99.90;;;;;;5033160;28;19913;-43
2022/01/20 02:55:36;;;;;;;;;;;3.40;99.90;;;;;;5034063;28;20007;-43
2022/01/20 02:58:01;;;;;;;;;;;3.40;99.90;;;;;;5036455;28;19912;-44
2022/01/20 03:00:27;;;;;;;;;;;3.30;99.90;;;;;;5037153;28;19905;-45
2022/01/20 03:02:55;;;;;;;;;;;3.30;99.90;;;;;;5036980;28;20263;-44
2022/01/20 03:05:20;;;;;;;;;;;3.30;99.90;;;;;;5037314;28;19905;-44
2022/01/20 03:07:46;;;;;;;;;;;3.30;99.90;;;;;;5037277;28;20252;-48
2022/01/20 03:10:12;;;;;;;;;;;3.40;99.90;;;;;;5037181;28;20236;-44
2022/01/20 03:12:37;;;;;;;;;;;3.30;99.90;;;;;;5037100;28;19914;-43
2022/01/20 03:15:03;;;;;;;;;;;3.30;99.90;;;;;;5037441;28;19912;-45
2022/01/20 03:17:30;;;;;;;;;;;3.30;99.90;;;;;;5019431;28;19917;-43
2022/01/20 03:19:56;;;;;;;;;;;3.30;99.90;;;;;;5055383;28;20354;-41
2022/01/20 03:22:21;;;;;;;;;;;3.40;99.90;;;;;;5056180;28;19909;-44
2022/01/20 03:24:47;;;;;;;;;;;3.40;99.90;;;;;;5056764;28;19921;-43
2022/01/20 03:27:12;;;;;;;;;;;3.30;99.90;;;;;;5056761;28;19905;-44
2022/01/20 03:29:38;;;;;;;;;;;3.40;99.90;;;;;;5057291;28;19909;-43
2022/01/20 03:32:03;;;;;;;;;;;3.20;99.90;;;;;;5057115;28;19912;-43
2022/01/20 03:34:29;;;;;;;;;;;3.20;99.90;;;;;;5057221;28;19908;-43
2022/01/20 03:36:54;;;;;;;;;;;3.20;99.90;;;;;;5057348;28;20414;-43
2022/01/20 03:39:20;;;;;;;;;;;3.20;99.90;;;;;;5057405;28;19905;-43
2022/01/20 03:41:46;;;;;;;;;;;3.20;99.90;;;;;;5057330;28;20285;-45
2022/01/20 03:44:12;;;;;;;;;;;3.10;99.90;;;;;;5057306;28;19909;-43
2022/01/20 03:46:37;;;;;;;;;;;2.90;99.90;;;;;;5057240;28;19905;-43
2022/01/20 03:49:21;;;;;;;;;;;2.90;99.90;;;;;;5056919;28;19958;-43
2022/01/20 03:51:46;;;;;;;;;;;2.90;99.90;;;;;;5056868;28;19913;-47
2022/01/20 03:54:12;;;;;;;;;;;2.80;99.90;;;;;;5057063;28;20285;-43
2022/01/20 03:56:37;;;;;;;;;;;2.70;99.90;;;;;;5056727;28;19911;-42
2022/01/20 03:59:03;;;;;;;;;;;2.70;99.90;;;;;;5056719;28;19912;-43
2022/01/20 04:01:28;;;;;;;;;;;2.60;99.90;;;;;;5056645;28;19909;-42
2022/01/20 04:03:54;;;;;;;;;;;2.50;99.90;;;;;;5056660;28;19947;-42
2022/01/20 04:06:19;;;;;;;;;;;2.50;99.90;;;;;;5056915;28;20274;-43
2022/01/20 04:08:46;;;;;;;;;;;2.40;99.90;;;;;;5055953;28;19999;-43
2022/01/20 04:11:22;;;;;;;;;;;2.40;99.90;;;;;;5057126;28;19995;-43
2022/01/20 04:13:48;;;;;;;;;;;2.40;99.90;;;;;;5056693;28;19917;-42
2022/01/20 04:16:19;;;;;;;;;;;2.50;99.90;;;;;;5056669;28;19924;-42
2022/01/20 04:18:52;;;;;;;;;;;2.40;99.90;;;;;;5056614;28;19905;-43
2022/01/20 04:21:22;;;;;;;;;;;2.40;99.90;;;;;;5056336;28;20378;-43
2022/01/20 04:23:48;;;;;;;;;;;2.40;99.90;;;;;;5055938;28;20003;-43
2022/01/20 04:26:13;;;;;;;;;;;2.20;99.90;;;;;;5056340;28;19955;-43
2022/01/20 04:28:39;;;;;;;;;;;2.30;99.90;;;;;;5056477;28;20334;-43
2022/01/20 04:31:04;;;;;;;;;;;2.20;99.90;;;;;;5056343;28;19904;-43
2022/01/20 04:33:30;;;;;;;;;;;2.20;99.90;;;;;;5055927;28;19975;-43
2022/01/20 04:35:55;;;;;;;;;;;2.20;99.90;;;;;;5055990;28;20389;-42
2022/01/20 04:38:21;;;;;;;;;;;2.20;99.90;;;;;;5056042;28;19905;-44
2022/01/20 04:40:47;;;;;;;;;;;2.20;99.90;;;;;;5056276;28;20397;-42
2022/01/20 04:43:13;;;;;;;;;;;2.20;99.90;;;;;;5056268;28;19912;-43
2022/01/20 04:45:48;;;;;;;;;;;2.20;99.90;;;;;;5056057;28;19909;-43
2022/01/20 04:58:58;;;;;;;;;;;2.00;99.90;;;;;;5055641;28;19955;-43
2022/01/20 05:01:23;;;;;;;;;;;1.90;99.90;;;;;;5055670;28;20293;-43
2022/01/20 05:03:49;;;;;;;;;;;2.00;99.90;;;;;;5055192;28;19912;-44
2022/01/20 05:06:14;;;;;;;;;;;2.00;99.90;;;;;;5055529;28;19916;-44
2022/01/20 05:08:40;;;;;;;;;;;2.00;99.90;;;;;;5055227;28;19908;-44
2022/01/20 05:11:05;;;;;;;;;;;2.00;99.90;;;;;;5055220;28;19904;-44
2022/01/20 05:13:37;;;;;;;;;;;2.00;99.90;;;;;;5055262;28;19927;-42
2022/01/20 05:16:03;;;;;;;;;;;2.10;99.90;;;;;;5055364;28;19927;-43
2022/01/20 05:18:28;;;;;;;;;;;2.10;99.90;;;;;;5037345;28;20351;-44
2022/01/20 05:20:54;;;;;;;;;;;1.90;99.90;;;;;;5055227;28;19904;-44
2022/01/20 05:23:20;;;;;;;;;;;2.00;99.90;;;;;;5036927;28;20406;-43
2022/01/20 05:25:45;;;;;;;;;;;2.00;99.90;;;;;;5055226;28;19958;-43
2022/01/20 05:28:11;;;;;;;;;;;2.00;99.90;;;;;;5055031;28;19911;-43
2022/01/20 05:30:38;;;;;;;;;;;2.00;99.90;;;;;;5055018;28;20335;-43
2022/01/20 05:33:04;;;;;;;;;;;2.00;99.90;;;;;;5054618;28;19919;-42
2022/01/20 05:35:30;;;;;;;;;;;2.00;99.90;;;;;;5054959;28;19905;-44
2022/01/20 05:37:56;;;;;;;;;;;2.10;99.90;;;;;;5054735;28;19905;-45
2022/01/20 05:40:21;;;;;;;;;;;2.10;99.90;;;;;;5054584;28;19911;-45
2022/01/20 05:42:47;;;;;;;;;;;2.10;99.90;;;;;;5054699;28;20262;-43
2022/01/20 05:45:13;;;;;;;;;;;2.10;99.90;;;;;;5054293;28;19904;-43
2022/01/20 05:47:44;;;;;;;;;;;2.10;99.90;;;;;;5054535;28;19916;-44
2022/01/20 05:50:13;;;;;;;;;;;2.00;99.90;;;;;;5054757;28;20011;-43
2022/01/20 05:52:42;;;;;;;;;;;2.10;99.90;;;;;;5054483;28;19916;-42
2022/01/20 05:55:09;;;;;;;;;;;2.10;99.90;;;;;;5054563;28;19911;-42
2022/01/20 05:57:35;;;;;;;;;;;2.10;99.90;;;;;;5054286;28;19908;-43
2022/01/20 06:00:01;;;;;;;;;;;2.00;99.90;;;;;;5054335;28;19916;-43
2022/01/20 06:03:36;;;;;;;;;;;2.00;99.90;;;;;;5053967;28;19940;-43
2022/01/20 06:05:12;;;;;;;;;;;2.20;99.90;;;;;;5052334;28;19908;-43
2022/01/20 06:07:38;;;;;;;;;;;2.10;99.90;;;;;;5053832;28;19916;-42
2022/01/20 06:10:03;;;;;;;;;;;2.10;99.90;;;;;;5054501;28;20377;-44
2022/01/20 06:12:29;;;;;;;;;;;2.20;99.90;;;;;;5054113;28;19920;-43
2022/01/20 06:14:54;;;;;;;;;;;2.20;99.90;;;;;;5053736;28;20247;-42
2022/01/20 06:17:27;;;;;;;;;;;2.30;99.90;;;;;;5053941;28;19905;-46
2022/01/20 06:19:52;;;;;;;;;;;2.20;99.90;;;;;;5053940;28;19954;-45
2022/01/20 06:22:18;;;;;;;;;;;2.20;99.90;;;;;;5054169;28;20387;-43
2022/01/20 06:24:43;;;;;;;;;;;2.20;99.90;;;;;;5053280;28;19920;-42
2022/01/20 06:27:09;;;;;;;;;;;2.30;99.90;;;;;;5053260;28;19949;-44
2022/01/20 06:29:35;;;;;;;;;;;2.20;99.90;;;;;;5053801;28;19905;-42
2022/01/20 06:32:00;;;;;;;;;;;2.30;99.90;;;;;;5052889;28;19912;-45
2022/01/20 06:34:26;;;;;;;;;;;2.20;99.90;;;;;;5053500;28;19905;-45
2022/01/20 06:36:51;;;;;;;;;;;2.30;99.90;;;;;;5053452;28;19909;-43
2022/01/20 06:39:17;;;;;;;;;;;2.30;99.90;;;;;;5053151;28;19905;-43
2022/01/20 06:41:42;;;;;;;;;;;2.30;99.90;;;;;;5053196;28;19905;-44
2022/01/20 06:44:08;;;;;;;;;;;2.30;99.90;;;;;;5053139;28;19909;-45
2022/01/20 06:46:33;;;;;;;;;;;2.30;99.90;;;;;;5053336;28;19966;-43
2022/01/20 06:48:59;;;;;;;;;;;2.30;99.90;;;;;;5053259;28;19911;-46
2022/01/20 06:51:24;;;;;;;;;;;2.30;99.90;;;;;;5053404;28;19959;-43
2022/01/20 06:53:50;;;;;;;;;;;2.40;99.90;;;;;;5052871;28;19973;-45
2022/01/20 06:56:15;;;;;;;;;;;2.40;99.90;;;;;;5052900;28;19996;-43
2022/01/20 06:58:41;;;;;;;;;;;2.30;99.90;;;;;;5053349;28;19905;-44
2022/01/20 07:01:06;;;;;;;;;;;2.40;99.90;;;;;;5053252;28;19905;-44
2022/01/20 07:03:32;;;;;;;;;;;2.50;99.90;;;;;;5052680;28;19952;-43
2022/01/20 07:05:57;;;;;;;;;;;2.50;99.90;;;;;;5052561;28;19955;-43
2022/01/20 07:08:23;;;;;;;;;;;2.40;99.90;;;;;;5053040;28;19912;-42
2022/01/20 07:10:48;;;;;;;;;;;2.40;99.90;;;;;;5052967;28;19913;-43
2022/01/20 07:13:14;;;;;;;;;;;2.40;99.90;;;;;;5052556;28;20373;-44
2022/01/20 07:15:39;;;;;;;;;;;2.40;99.90;;;;;;5052841;28;19911;-44
2022/01/20 07:18:05;;;;;;;;;;;2.50;99.90;;;;;;5052747;28;19936;-45
2022/01/20 07:20:31;;;;;;;;;;;2.40;99.90;;;;;;5035105;28;19904;-42
2022/01/20 07:22:57;;;;;;;;;;;2.40;99.90;;;;;;5052908;28;19916;-44
2022/01/20 07:25:23;;;;;;;;;;;2.50;99.90;;;;;;5052898;28;19905;-44
2022/01/20 07:27:48;;;;;;;;;;;2.50;99.90;;;;;;5052972;28;19955;-43
2022/01/20 07:30:14;;;;;;;;;;;2.50;99.90;;;;;;5053007;28;19911;-44
2022/01/20 07:32:40;;;;;;;;;;;2.60;99.90;;;;;;5052734;28;19913;-46
2022/01/20 07:35:06;;;;;;;;;;;2.60;99.90;;;;;;5052947;28;19988;-45
2022/01/20 07:37:32;;;;;;;;;;;2.70;99.90;;;;;;5052462;28;19951;-43
2022/01/20 07:39:57;;;;;;;;;;;2.60;99.90;;;;;;5052476;28;19996;-46
2022/01/20 07:42:23;;;;;;;;;;;2.60;99.90;;;;;;5052427;28;20031;-43
2022/01/20 07:44:49;;;;;;;;;;;2.50;99.90;;;;;;5055601;28;19958;-44
2022/01/20 07:47:15;;;;;;;;;;;2.60;99.90;;;;;;5056175;28;19995;-44
2022/01/20 07:49:41;;;;;;;;;;;2.60;99.90;;;;;;5056082;28;20370;-44
2022/01/20 07:52:06;;;;;;;;;;;2.60;99.90;;;;;;5055750;28;19912;-42
2022/01/20 07:54:32;;;;;;;;;;;2.60;99.90;;;;;;5047670;28;20240;-44
2022/01/20 07:56:57;;;;;;;;;;;2.60;99.90;;;;;;5024957;28;19910;-48
2022/01/20 07:59:24;;;;;;;;;;;2.60;99.90;;;;;;5024359;28;19905;-44
2022/01/20 08:01:51;;;;;;;;;;;2.60;99.90;;;;;;5042769;28;19905;-43
2022/01/20 08:04:17;;;;;;;;;;;2.50;99.90;;;;;;5056030;28;19905;-41
2022/01/20 08:06:42;;;;;;;;;;;2.60;99.90;;;;;;5055621;28;19911;-42
2022/01/20 08:09:09;;;;;;;;;;;2.60;99.90;;;;;;5056049;28;19932;-40
2022/01/20 08:11:34;;;;;;;;;;;2.60;99.90;;;;;;5055844;28;20255;-42
2022/01/20 08:14:00;;;;;;;;;;;2.60;99.90;;;;;;5055774;28;19920;-46
2022/01/20 08:16:25;;;;;;;;;;;2.70;99.90;;;;;;5055581;28;20011;-41
2022/01/20 08:18:53;;;;;;;;;;;2.60;99.90;;;;;;5055975;28;19924;-40
2022/01/20 08:21:19;;;;;;;;;;;2.80;99.90;;;;;;5055551;28;19961;-47
2022/01/20 08:23:44;;;;;;;;;;;2.80;99.90;;;;;;5055564;28;19917;-40
2022/01/20 08:26:10;;;;;;;;;;;2.80;99.90;;;;;;5055656;28;19912;-43
2022/01/20 08:28:35;;;;;;;;;;;2.80;99.90;;;;;;5055653;28;19905;-42
2022/01/20 08:31:01;;;;;;;;;;;2.70;99.90;;;;;;5055349;28;20290;-45
2022/01/20 08:33:27;;;;;;;;;;;2.80;99.90;;;;;;5037855;28;19912;-47
2022/01/20 08:35:52;;;;;;;;;;;2.90;99.90;;;;;;5054778;28;19905;-43
2022/01/20 08:38:18;;;;;;;;;;;2.80;99.90;;;;;;5055210;28;19955;-43
2022/01/20 08:40:44;;;;;;;;;;;2.80;99.90;;;;;;5055584;28;19915;-42
2022/01/20 08:43:10;;;;;;;;;;;2.80;99.90;;;;;;5054265;28;19932;-41
2022/01/20 08:45:36;;;;;;;;;;;2.70;99.90;;;;;;5055139;28;19905;-47
2022/01/20 08:48:03;;;;;;;;;;;2.70;99.90;;;;;;5054189;28;20310;-44
2022/01/20 08:50:29;;;;;;;;;;;2.70;99.90;;;;;;5049219;28;19909;-47
2022/01/20 08:52:55;;;;;;;;;;;2.80;99.90;;;;;;5035302;28;20415;-45
2022/01/20 08:55:20;;;;;;;;;;;2.70;99.90;;;;;;5035091;28;20055;-46
2022/01/20 08:57:47;;;;;;;;;;;2.70;99.90;;;;;;5054039;28;20008;-41
2022/01/20 09:00:13;;;;;;;;;;;2.70;99.90;;;;;;5053028;28;19909;-45
2022/01/20 09:02:39;;;;;;;;;;;2.70;99.90;;;;;;5041339;28;19921;-45
2022/01/20 09:05:05;;;;;;;;;;;2.70;99.90;;;;;;5054519;28;20268;-45
2022/01/20 09:07:31;;;;;;;;;;;2.70;99.90;;;;;;5034217;28;20002;-49
2022/01/20 09:09:59;;;;;;;;;;;2.70;99.90;;;;;;5054584;28;19909;-45
2022/01/20 09:17:44;;;;;;;;;;;2.90;99.90;;;;;;5054099;28;19915;-41
2022/01/20 09:20:10;;;;;;;;;;;2.90;99.90;;;;;;5054957;28;20004;-50
2022/01/20 09:22:36;;;;;;;;;;;2.90;99.90;;;;;;5054155;28;20398;-46
2022/01/20 09:25:02;;;;;;;;;;;3.00;99.90;;;;;;5054656;28;19912;-45
2022/01/20 09:27:29;;;;;;;;;;;2.90;99.90;;;;;;5054534;28;19913;-42
2022/01/20 09:29:54;;;;;;;;;;;2.90;99.90;;;;;;5054515;28;19915;-44
2022/01/20 09:32:20;;;;;;;;;;;2.90;99.90;;;;;;5054432;28;19913;-42
2022/01/20 09:34:46;;;;;;;;;;;2.80;99.90;;;;;;5054014;28;19999;-48
2022/01/20 09:37:12;;;;;;;;;;;2.90;99.90;;;;;;5053877;28;19960;-43
2022/01/20 09:39:39;;;;;;;;;;;2.90;99.90;;;;;;5053670;28;19908;-44
2022/01/20 09:42:05;;;;;;;;;;;2.80;99.90;;;;;;5054110;28;19909;-44
2022/01/20 09:44:31;;;;;;;;;;;2.90;99.90;;;;;;5053274;28;19920;-42
2022/01/20 09:46:57;;;;;;;;;;;3.00;99.90;;;;;;5054275;28;19905;-43
2022/01/20 09:49:22;;;;;;;;;;;3.10;99.90;;;;;;5053693;28;20252;-42
2022/01/20 09:51:48;;;;;;;;;;;3.20;99.90;;;;;;5053142;28;20367;-41
2022/01/20 09:54:13;;;;;;;;;;;3.30;99.90;;;;;;5052767;28;19913;-45
2022/01/20 09:56:41;;;;;;;;;;;3.20;99.90;;;;;;5053234;28;19912;-46
2022/01/20 09:59:07;;;;;;;;;;;3.30;99.90;;;;;;5053346;28;20382;-49
2022/01/20 10:01:47;;;;;;;;;;;3.40;99.90;;;;;;5049359;28;19913;-44
2022/01/20 10:04:21;;;;;;;;;;;3.40;99.90;;;;;;5053390;28;20315;-49
2022/01/20 10:07:06;;;;;;;;;;;3.50;99.90;;;;;;5048575;28;20015;-48
2022/01/20 10:09:38;;;;;;;;;;;3.60;99.90;;;;;;5016070;28;19912;-48
2022/01/20 10:12:05;;;;;;;;;;;3.50;99.90;;;;;;5033550;28;19917;-43
2022/01/20 10:14:44;;;;;;;;;;;3.50;99.90;;;;;;5033853;28;19913;-45
2022/01/20 10:17:16;;;;;;;;;;;3.40;99.90;;;;;;5016079;28;19958;-45
2022/01/20 10:19:41;;;;;;;;;;;3.30;99.90;;;;;;5043614;28;19991;-48
2022/01/20 10:22:11;;;;;;;;;;;3.30;99.90;;;;;;5053380;28;20379;-47
2022/01/20 10:24:37;;;;;;;;;;;3.30;99.90;;;;;;5053386;28;19932;-45
2022/01/20 10:27:08;;;;;;;;;;;3.30;99.90;;;;;;5053215;28;20402;-45
2022/01/20 10:29:33;;;;;;;;;;;3.30;99.90;;;;;;5053270;28;19909;-46
2022/01/20 10:31:59;;;;;;;;;;;3.30;99.90;;;;;;5051676;28;19920;-47
2022/01/20 10:34:30;;;;;;;;;;;3.30;99.90;;;;;;5056158;28;19913;-46
2022/01/20 10:36:58;;;;;;;;;;;3.30;99.90;;;;;;5059613;28;19913;-47
2022/01/20 10:39:27;;;;;;;;;;;3.40;99.90;;;;;;5048778;28;19919;-48
2022/01/20 10:41:56;;;;;;;;;;;3.40;99.90;;;;;;5064870;28;19920;-44
2022/01/20 10:44:22;;;;;;;;;;;3.40;99.90;;;;;;5060661;28;19999;-42
2022/01/20 10:46:51;;;;;;;;;;;3.50;99.90;;;;;;5049139;28;19948;-43
2022/01/20 10:49:17;;;;;;;;;;;3.60;99.90;;;;;;5058607;28;19996;-42
2022/01/20 10:51:43;;;;;;;;;;;3.60;99.90;;;;;;5055799;28;19959;-43
2022/01/20 10:54:13;;;;;;;;;;;3.70;99.90;;;;;;5047170;28;19921;-45
2022/01/20 10:56:55;;;;;;;;;;;4.00;99.90;;;;;;5056777;28;19917;-43
2022/01/20 10:59:21;;;;;;;;;;;4.20;99.90;;;;;;5061215;28;19958;-41
2022/01/20 11:02:04;;;;;;;;;;;4.40;99.90;;;;;;5053359;28;19916;-46
2022/01/20 11:04:30;;;;;;;;;;;4.50;99.90;;;;;;5054466;28;19917;-46
2022/01/20 11:06:58;;;;;;;;;;;4.50;99.90;;;;;;5050289;28;19966;-42
2022/01/20 11:09:25;;;;;;;;;;;4.50;99.90;;;;;;5057872;28;19959;-42
2022/01/20 11:11:51;;;;;;;;;;;5.10;99.90;;;;;;5055121;28;20008;-45
2022/01/20 11:14:17;;;;;;;;;;;5.40;99.90;;;;;;5062540;28;19999;-43
2022/01/20 11:16:43;;;;;;;;;;;5.20;99.90;;;;;;5054212;28;19939;-46
2022/01/20 11:19:16;;;;;;;;;;;4.80;99.90;;;;;;5060606;28;19962;-49
2022/01/20 11:21:44;;;;;;;;;;;4.80;99.90;;;;;;5069283;28;19927;-43
2022/01/20 11:24:17;;;;;;;;;;;4.20;99.90;;;;;;5062392;28;19929;-46
2022/01/20 11:26:52;;;;;;;;;;;4.40;99.90;;;;;;5068609;28;19924;-43
2022/01/20 11:29:18;;;;;;;;;;;4.80;99.90;;;;;;5058745;28;20356;-49
2022/01/20 11:31:44;;;;;;;;;;;4.80;99.90;;;;;;5060960;28;19926;-41
2022/01/20 11:34:16;;;;;;;;;;;4.60;99.90;;;;;;5050189;28;19912;-43
2022/01/20 11:36:42;;;;;;;;;;;4.60;99.90;;;;;;5057352;28;20394;-47
2022/01/20 11:39:07;;;;;;;;;;;4.60;99.90;;;;;;5053681;28;19940;-48
2022/01/20 11:41:40;;;;;;;;;;;4.50;99.90;;;;;;5047297;28;19917;-45
2022/01/20 11:44:10;;;;;;;;;;;4.20;99.90;;;;;;5052696;28;20007;-42
2022/01/20 11:46:41;;;;;;;;;;;4.10;99.90;;;;;;5055933;28;19923;-45
2022/01/20 11:49:08;;;;;;;;;;;4.10;99.90;;;;;;5042510;28;19917;-43
2022/01/20 11:51:50;;;;;;;;;;;4.30;99.90;;;;;;5063875;28;19917;-45
2022/01/20 11:54:36;;;;;;;;;;;4.50;99.90;;;;;;5066907;28;19966;-48
2022/01/20 11:57:08;;;;;;;;;;;4.70;99.90;;;;;;5047831;28;19912;-45
2022/01/20 11:59:35;;;;;;;;;;;4.80;99.90;;;;;;5068365;28;19916;-43
2022/01/20 12:02:00;;;;;;;;;;;4.80;99.90;;;;;;5055480;28;19919;-45
2022/01/20 12:04:33;;;;;;;;;;;4.90;99.90;;;;;;5045565;28;19921;-41
2022/01/20 12:06:59;;;;;;;;;;;4.80;99.90;;;;;;5056789;28;19921;-43
2022/01/20 12:09:38;;;;;;;;;;;4.80;99.90;;;;;;5046399;28;19986;-43
2022/01/20 12:12:04;;;;;;;;;;;4.70;99.90;;;;;;5062305;28;20256;-41
2022/01/20 12:14:38;;;;;;;;;;;4.50;99.90;;;;;;5061236;28;19920;-42
2022/01/20 12:17:08;;;;;;;;;;;4.70;99.90;;;;;;5061231;28;20020;-51
2022/01/20 12:19:34;;;;;;;;;;;4.80;99.90;;;;;;5058641;28;20384;-47
2022/01/20 12:22:01;;;;;;;;;;;4.80;99.90;;;;;;5051094;28;19913;-45
2022/01/20 12:24:27;;;;;;;;;;;4.70;99.90;;;;;;5055757;28;19920;-50
2022/01/20 12:26:52;;;;;;;;;;;4.70;99.90;;;;;;5054386;28;20402;-46
2022/01/20 12:29:18;;;;;;;;;;;4.80;99.90;;;;;;5050387;28;19921;-46
2022/01/20 12:31:54;;;;;;;;;;;4.50;99.90;;;;;;5055725;28;20003;-44
2022/01/20 12:34:22;;;;;;;;;;;4.50;99.90;;;;;;5055114;28;20131;-47
2022/01/20 12:36:50;;;;;;;;;;;4.50;99.90;;;;;;5054561;28;20297;-46
2022/01/20 12:39:21;;;;;;;;;;;4.50;99.90;;;;;;5054602;28;20365;-47
2022/01/20 12:41:53;;;;;;;;;;;4.60;99.90;;;;;;5054734;28;19909;-44
2022/01/20 12:44:18;;;;;;;;;;;4.70;99.90;;;;;;5054919;28;20283;-47
2022/01/20 12:46:46;;;;;;;;;;;4.70;99.90;;;;;;5054951;28;19913;-46
2022/01/20 12:49:13;;;;;;;;;;;5.00;99.90;;;;;;5054917;28;19935;-47
2022/01/20 12:51:46;;;;;;;;;;;5.00;99.90;;;;;;5054454;28;19998;-45
2022/01/20 12:54:13;;;;;;;;;;;5.00;99.90;;;;;;5037618;28;19929;-44
2022/01/20 12:56:41;;;;;;;;;;;4.80;99.90;;;;;;5054406;28;19917;-49
2022/01/20 12:59:07;;;;;;;;;;;4.70;99.90;;;;;;5051137;28;19932;-48
2022/01/20 13:01:40;;;;;;;;;;;4.50;99.90;;;;;;5052019;28;19913;-47
2022/01/20 13:04:06;;;;;;;;;;;4.30;99.90;;;;;;5054223;28;19967;-48
2022/01/20 13:06:33;;;;;;;;;;;4.20;99.90;;;;;;5055182;28;19909;-48
2022/01/20 13:08:58;;;;;;;;;;;4.30;99.90;;;;;;5054519;28;19944;-49
2022/01/20 13:11:28;;;;;;;;;;;4.40;99.90;;;;;;5053989;28;19920;-51
2022/01/20 13:13:54;;;;;;;;;;;4.30;99.90;;;;;;5054649;28;19927;-47
2022/01/20 13:16:20;;;;;;;;;;;4.20;99.90;;;;;;5053482;28;19916;-50
2022/01/20 13:19:12;;;;;;;;;;;4.30;99.90;;;;;;5054061;28;20331;-47
2022/01/20 13:21:39;;;;;;;;;;;4.40;99.90;;;;;;5049999;28;19934;-46
2022/01/20 13:24:07;;;;;;;;;;;4.30;99.90;;;;;;5042412;28;19928;-46
2022/01/20 13:26:43;;;;;;;;;;;4.30;99.90;;;;;;5034979;28;19913;-47
2022/01/20 13:29:08;;;;;;;;;;;4.10;99.90;;;;;;5044211;28;20011;-47
2022/01/20 13:31:34;;;;;;;;;;;4.10;99.90;;;;;;5049682;28;19964;-45
2022/01/20 13:34:09;;;;;;;;;;;4.20;99.90;;;;;;5053639;28;20266;-46
2022/01/20 13:36:54;;;;;;;;;;;4.10;99.90;;;;;;5036810;28;19939;-40
2022/01/20 13:39:35;;;;;;;;;;;4.10;99.90;;;;;;5039862;28;19987;-49
2022/01/20 13:42:03;;;;;;;;;;;4.00;99.90;;;;;;5052992;28;19909;-42
2022/01/20 13:47:13;;;;;;;;;;;4.10;99.90;;;;;;5053742;28;19931;-47
2022/01/20 13:50:07;;;;;;;;;;;4.00;99.90;;;;;;5053364;28;20326;-46
2022/01/20 13:52:38;;;;;;;;;;;4.00;99.90;;;;;;5023302;28;19974;-44
2022/01/20 13:55:16;;;;;;;;;;;4.00;99.90;;;;;;5056341;28;19917;-41
2022/01/20 13:57:41;;;;;;;;;;;4.10;99.90;;;;;;5058268;28;19913;-46
2022/01/20 14:00:12;;;;;;;;;;;4.10;99.90;;;;;;5059317;28;20274;-42
2022/01/20 14:02:37;;;;;;;;;;;4.10;99.90;;;;;;5059118;28;20279;-43
2022/01/20 14:05:03;;;;;;;;;;;4.00;99.90;;;;;;5059149;28;19953;-44
2022/01/20 14:07:28;;;;;;;;;;;3.90;99.90;;;;;;5058928;28;20049;-44
2022/01/20 14:09:55;;;;;;;;;;;3.90;99.90;;;;;;5059430;28;20007;-41
2022/01/20 14:12:21;;;;;;;;;;;3.80;99.90;;;;;;5059466;28;19920;-41
2022/01/20 14:14:46;;;;;;;;;;;3.90;99.90;;;;;;5059181;28;19970;-42
2022/01/20 14:17:20;;;;;;;;;;;4.00;99.90;;;;;;5059215;28;19919;-47
2022/01/20 14:19:48;;;;;;;;;;;3.90;99.90;;;;;;5059135;28;19913;-42
2022/01/20 14:22:13;;;;;;;;;;;3.90;99.90;;;;;;5055908;28;20276;-49
2022/01/20 14:24:39;;;;;;;;;;;3.80;99.90;;;;;;5058973;28;20004;-46
2022/01/20 14:27:16;;;;;;;;;;;3.80;99.90;;;;;;5058293;28;19912;-45
2022/01/20 14:29:42;;;;;;;;;;;3.70;99.90;;;;;;5058784;28;19913;-43
2022/01/20 14:32:09;;;;;;;;;;;3.90;99.90;;;;;;5058353;28;19912;-41
2022/01/20 14:34:34;;;;;;;;;;;3.70;99.90;;;;;;5058238;28;19925;-42
2022/01/20 14:37:00;;;;;;;;;;;3.70;99.90;;;;;;5064207;28;19913;-45
2022/01/20 14:39:26;;;;;;;;;;;3.70;99.90;;;;;;5063908;28;20017;-44
2022/01/20 14:41:51;;;;;;;;;;;3.70;99.90;;;;;;5065081;28;20039;-45
2022/01/20 14:44:17;;;;;;;;;;;3.70;99.90;;;;;;5065090;28;19913;-43
2022/01/20 14:46:42;;;;;;;;;;;3.60;99.90;;;;;;5065694;28;19913;-44
2022/01/20 14:49:08;;;;;;;;;;;3.70;99.90;;;;;;5065923;28;19918;-45
2022/01/20 14:51:33;;;;;;;;;;;3.60;99.90;;;;;;5054308;28;19921;-45
2022/01/20 14:53:59;;;;;;;;;;;3.60;99.90;;;;;;5045566;28;19960;-42
2022/01/20 14:56:24;;;;;;;;;;;3.50;99.90;;;;;;5052947;28;19990;-43
2022/01/20 14:58:50;;;;;;;;;;;3.40;99.90;;;;;;5049281;28;20011;-43
2022/01/20 15:01:16;;;;;;;;;;;3.20;99.90;;;;;;5053168;28;20377;-45
2022/01/20 15:03:42;;;;;;;;;;;3.10;99.90;;;;;;5058258;28;19916;-45
2022/01/20 15:06:07;;;;;;;;;;;3.00;99.90;;;;;;5055691;28;20306;-44
2022/01/20 15:08:33;;;;;;;;;;;3.00;99.90;;;;;;5055860;28;19916;-46
2022/01/20 15:10:59;;;;;;;;;;;3.00;99.90;;;;;;5058168;28;19920;-43
2022/01/20 15:13:25;;;;;;;;;;;3.10;99.90;;;;;;5064692;28;19916;-44
2022/01/20 15:15:50;;;;;;;;;;;2.90;99.90;;;;;;5053032;28;20516;-45
2022/01/20 15:18:16;;;;;;;;;;;2.80;99.90;;;;;;5056872;28;19912;-44
2022/01/20 15:20:41;;;;;;;;;;;2.90;99.90;;;;;;5050522;28;20000;-45
2022/01/20 15:23:07;;;;;;;;;;;2.90;99.90;;;;;;5052834;28;20278;-43
2022/01/20 15:25:32;;;;;;;;;;;2.90;99.90;;;;;;5058614;28;19912;-43
2022/01/20 15:27:58;;;;;;;;;;;2.90;99.90;;;;;;5057191;28;20371;-44
2022/01/20 15:30:23;;;;;;;;;;;2.90;99.90;;;;;;5058253;28;19921;-43
2022/01/20 15:32:49;;;;;;;;;;;2.80;99.90;;;;;;5058679;28;19916;-43
2022/01/20 15:35:15;;;;;;;;;;;2.80;99.90;;;;;;5057303;28;19970;-43
2022/01/20 15:37:40;;;;;;;;;;;2.60;99.90;;;;;;5058482;28;19920;-44
2022/01/20 15:40:07;;;;;;;;;;;2.40;99.90;;;;;;5056339;28;20375;-43
2022/01/20 15:42:33;;;;;;;;;;;0.90;99.90;;;;;;5054677;28;20274;-44
2022/01/20 15:45:01;;;;;;;;;;;0.60;99.90;;;;;;5052253;28;19916;-42
2022/01/20 15:47:26;;;;;;;;;;;0.60;99.90;;;;;;5051102;28;19920;-43